Weather observations for the past three days for
New Bern, Craven County Regional Airport
Imperial (Metric)
Date Time (edt) Wind (mph) Vis. (mi.) Weather Sky Cond. Temperature (ºF) Relative Humidity Wind Chill (°F) Heat Index (°F) Pressure Precipitation (in)
Air Dwpt 6 hour altimeter (in) sea level (mb) 1 hr 3 hr 6 hr
Max. Min.
02 21:54 Calm 10.00 Fair CLR 75.2 73.4 94% 74 30.05 0.0
02 20:54 Calm 10.00 Fair CLR 75.2 71.6 89% 75 30.05 0.0
02 19:54 Calm 10.00 Light Rain FEW027 SCT090 OVC110 77 69.8 79% 79 30.05 0.0
02 18:54 Calm 10.00 Fair CLR 87.8 77 70% 100 30.02 0.0
02 17:54 Calm 10.00 Fair CLR 91.4 77 63% 105 30.02 0.0
02 16:54 Calm 10.00 A Few Clouds FEW250 96.8 73.4 47% 107 30.01 0.0
02 15:55 Calm 10.00 Fair CLR 96.8 73.4 47% 107 30.03 0.0
02 14:55 Calm 10.00 Fair CLR 93.2 73.4 53% 103 30.05 0.0
02 13:55 Calm 10.00 Fair CLR 91.4 75.2 59% 103 30.05 0.0
02 12:55 Calm 10.00 Fair CLR 91.4 75.2 59% 103 30.06 0.0
02 11:54 Calm 10.00 Fair CLR 89.6 75.2 63% 100 30.07 0.0
02 10:54 Calm 10.00 Fair CLR 87.8 73.4 62% 96 30.07 0.0
02 09:54 Calm 10.00 Fair CLR 77 71.6 83% 78 30.06 0.0
02 08:54 Calm 10.00 Fair CLR 77 73.4 89% 78 30.08 0.0
02 07:55 Calm 10.00 Fair CLR 77 73.4 89% 78 30.08 0.0
02 06:55 Calm 10.00 Fair CLR 73.4 73.4 100% 30.07 0.0
02 05:45 Calm 10.00 Fair CLR 73.4 73.4 100% 30.07 0.0
01 17:54 Calm 10.00 Fair CLR 91.4 71.6 52% 99 30.03 0.0
01 16:54 Calm 10.00 Fair CLR 91.4 71.6 52% 99 30.03 0.0
01 14:54 Calm 10.00 Fair CLR 91.4 71.6 52% 99 30.05 0.0
01 12:55 Calm 10.00 Fair CLR 89.6 73.4 59% 98 30.09 0.0
01 11:55 Calm 10.00 Fair CLR 87.8 71.6 59% 94 30.09 0.0
01 10:54 Calm 10.00 Fair CLR 87.8 75.2 66% 98 30.1 0.0
01 09:55 Calm 10.00 Fair CLR 82.4 75.2 79% 89 30.11 0.0
01 08:54 Calm 10.00 Fair CLR 80.6 75.2 84% 86 30.11 0.0
01 06:54 Calm 10.00 Fog FEW003 71.6 71.6 100% 30.08 0.0
31 19:55 Calm 10.00 Fair CLR 80.6 75.2 84% 86 30.08 0.0
31 18:55 Calm 10.00 Fair CLR 82.4 75.2 79% 89 30.08 0.0
31 17:55 Calm 10.00 Fair CLR 86 71.6 62% 92 30.07 0.0
31 16:55 Calm 10.00 Fair CLR 87.8 71.6 59% 94 30.07 0.0
31 15:55 Calm 10.00 Mostly Cloudy BKN 89.6 71.6 55% 96 30.08 0.0
31 11:54 Calm 10.00 Fair CLR 84.2 73.4 70% 91 30.14 0.0
31 10:54 Calm 10.00 Fair CLR 84.2 73.4 70% 91 30.14 0.0
31 09:54 Calm 10.00 Fair CLR 82.4 73.4 74% 88 30.14 0.0
31 08:54 Calm 10.00 Fair CLR 75.2 73.4 94% 74 30.12 0.0
31 07:54 Calm 10.00 Fair CLR 73.4 73.4 100% 30.12 0.0
31 06:54 Calm 10.00 Fair CLR 71.6 71.6 100% 30.12 0.0
31 05:54 Calm 10.00 A Few Clouds FEW002 71.6 71.6 100% 30.11 0.0
Date Time (edt) Wind (mph) Vis. (mi.) Weather Sky Cond. Air Dwpt Max. Min. Relative Humidity Wind Chill (°F) Heat Index (°F) altimeter (in) sea level (mb) 1 hr 3 hr 6 hr
6 hour
Temperature (ºF) Pressure Precipitation (in)